CFG9665 LEMD-LEPA
Flight info
| Callsign | CFG9665 |
|---|---|
| Flight time | N/A |
| Altitude | 30000 |
| Route | NANDO T257 FENXE/N0414F320 T257 LASPO/N0370F260 M871 GODOX |
| Aircraft | A20N/M-SDE2E3FGHIRWXY/LB1 |
Departure
| Time | N/A |
|---|---|
| Airport | Adolfo Suárez Madrid–Barajas Airport (LEMD) |
Arrival
| Time | 2026-05-03 20:42 |
|---|---|
| Airport | Palma de Mallorca Airport (LEPA) |
| Time | Latitude | Longitude | Altitude | Speed | Heading |
|---|---|---|---|---|---|
| 2026-05-03 20:15 | 39.59431 | 2.52751 | 10250 ft | 312 kts | 67° |
| 2026-05-03 20:15 | 39.60271 | 2.55287 | 10152 ft | 300 kts | 66° |
| 2026-05-03 20:15 | 39.61066 | 2.57715 | 10053 ft | 289 kts | 67° |
| 2026-05-03 20:15 | 39.61849 | 2.60065 | 9902 ft | 279 kts | 67° |
| 2026-05-03 20:16 | 39.62612 | 2.62357 | 9614 ft | 276 kts | 67° |
| 2026-05-03 20:16 | 39.63367 | 2.64632 | 9300 ft | 273 kts | 67° |
| 2026-05-03 20:16 | 39.64116 | 2.66879 | 8995 ft | 271 kts | 67° |
| 2026-05-03 20:16 | 39.64858 | 2.69134 | 8696 ft | 269 kts | 67° |
| 2026-05-03 20:17 | 39.65578 | 2.71348 | 8409 ft | 266 kts | 67° |
| 2026-05-03 20:17 | 39.66299 | 2.73558 | 8100 ft | 265 kts | 67° |
| 2026-05-03 20:17 | 39.67016 | 2.75750 | 7824 ft | 263 kts | 67° |
| 2026-05-03 20:17 | 39.67730 | 2.77927 | 7561 ft | 260 kts | 67° |
| 2026-05-03 20:18 | 39.68429 | 2.80047 | 7274 ft | 259 kts | 67° |
| 2026-05-03 20:18 | 39.69133 | 2.82192 | 7034 ft | 256 kts | 67° |
| 2026-05-03 20:18 | 39.69833 | 2.84310 | 6759 ft | 255 kts | 67° |
| 2026-05-03 20:18 | 39.70535 | 2.86426 | 6480 ft | 253 kts | 67° |
| 2026-05-03 20:19 | 39.71005 | 2.87834 | 6296 ft | 252 kts | 67° |
| 2026-05-03 20:19 | 39.71691 | 2.89891 | 6016 ft | 251 kts | 67° |
| 2026-05-03 20:19 | 39.72611 | 2.92638 | 5655 ft | 247 kts | 67° |
| 2026-05-03 20:19 | 39.73294 | 2.94682 | 5390 ft | 245 kts | 67° |
| 2026-05-03 20:20 | 39.73753 | 2.96046 | 5216 ft | 244 kts | 67° |
| 2026-05-03 20:20 | 39.74434 | 2.98054 | 5028 ft | 240 kts | 67° |
| 2026-05-03 20:20 | 39.75107 | 3.00049 | 5019 ft | 245 kts | 67° |
| 2026-05-03 20:20 | 39.75756 | 3.02076 | 4976 ft | 240 kts | 77° |
| 2026-05-03 20:21 | 39.75789 | 3.04193 | 4714 ft | 234 kts | 109° |
| 2026-05-03 20:21 | 39.74994 | 3.05962 | 4413 ft | 224 kts | 142° |
| 2026-05-03 20:21 | 39.73654 | 3.06836 | 4097 ft | 214 kts | 175° |
| 2026-05-03 20:21 | 39.72175 | 3.06912 | 3757 ft | 215 kts | 183° |
| 2026-05-03 20:22 | 39.70735 | 3.06556 | 3503 ft | 210 kts | 207° |
| 2026-05-03 20:22 | 39.69584 | 3.05415 | 3243 ft | 209 kts | 226° |
| 2026-05-03 20:22 | 39.68698 | 3.03910 | 3043 ft | 207 kts | 236° |
| 2026-05-03 20:22 | 39.67925 | 3.02280 | 3015 ft | 214 kts | 238° |
| 2026-05-03 20:23 | 39.67155 | 3.00643 | 3022 ft | 212 kts | 237° |
| 2026-05-03 20:23 | 39.66389 | 2.99027 | 3016 ft | 212 kts | 237° |
| 2026-05-03 20:23 | 39.65611 | 2.97384 | 3017 ft | 213 kts | 237° |
| 2026-05-03 20:23 | 39.64841 | 2.95756 | 3016 ft | 211 kts | 237° |
| 2026-05-03 20:24 | 39.64070 | 2.94130 | 3015 ft | 212 kts | 237° |
| 2026-05-03 20:24 | 39.63297 | 2.92498 | 2923 ft | 212 kts | 237° |
| 2026-05-03 20:24 | 39.62529 | 2.90878 | 2643 ft | 212 kts | 236° |
| 2026-05-03 20:24 | 39.61747 | 2.89231 | 2345 ft | 213 kts | 236° |
| 2026-05-03 20:25 | 39.60967 | 2.87586 | 2059 ft | 213 kts | 237° |
| 2026-05-03 20:25 | 39.60199 | 2.85964 | 1769 ft | 209 kts | 236° |
| 2026-05-03 20:25 | 39.59427 | 2.84341 | 1921 ft | 217 kts | 236° |
| 2026-05-03 20:25 | 39.58610 | 2.82622 | 2797 ft | 228 kts | 237° |
| 2026-05-03 20:26 | 39.57803 | 2.80928 | 3164 ft | 219 kts | 237° |
| 2026-05-03 20:26 | 39.57013 | 2.79267 | 3003 ft | 211 kts | 237° |
| 2026-05-03 20:26 | 39.56219 | 2.77651 | 2999 ft | 215 kts | 230° |
| 2026-05-03 20:26 | 39.55029 | 2.76562 | 2999 ft | 213 kts | 198° |
| 2026-05-03 20:27 | 39.53589 | 2.76037 | 2994 ft | 212 kts | 195° |
| 2026-05-03 20:27 | 39.52181 | 2.75555 | 3001 ft | 210 kts | 195° |
| 2026-05-03 20:27 | 39.50759 | 2.75069 | 2996 ft | 211 kts | 195° |
| 2026-05-03 20:27 | 39.49345 | 2.74580 | 3005 ft | 213 kts | 195° |
| 2026-05-03 20:28 | 39.47903 | 2.74139 | 2996 ft | 210 kts | 185° |
| 2026-05-03 20:28 | 39.46449 | 2.74316 | 3000 ft | 216 kts | 172° |
| 2026-05-03 20:28 | 39.44960 | 2.74651 | 3007 ft | 213 kts | 172° |
| 2026-05-03 20:28 | 39.43525 | 2.74969 | 3004 ft | 212 kts | 172° |
| 2026-05-03 20:29 | 39.42075 | 2.75290 | 3001 ft | 212 kts | 172° |
| 2026-05-03 20:29 | 39.40629 | 2.75653 | 2997 ft | 212 kts | 162° |
| 2026-05-03 20:29 | 39.39430 | 2.76760 | 3008 ft | 219 kts | 129° |
| 2026-05-03 20:29 | 39.38893 | 2.78635 | 3004 ft | 227 kts | 95° |
| 2026-05-03 20:30 | 39.39232 | 2.80603 | 3005 ft | 233 kts | 62° |
| 2026-05-03 20:30 | 39.40268 | 2.82231 | 3017 ft | 236 kts | 47° |
| 2026-05-03 20:30 | 39.41408 | 2.83763 | 3020 ft | 235 kts | 47° |
| 2026-05-03 20:30 | 39.42565 | 2.85295 | 3014 ft | 234 kts | 47° |
| 2026-05-03 20:31 | 39.43682 | 2.86771 | 3027 ft | 235 kts | 47° |
| 2026-05-03 20:31 | 39.44837 | 2.88296 | 3018 ft | 236 kts | 47° |
| 2026-05-03 20:31 | 39.45985 | 2.89808 | 3024 ft | 236 kts | 47° |
| 2026-05-03 20:31 | 39.47140 | 2.91330 | 3029 ft | 236 kts | 47° |
| 2026-05-03 20:32 | 39.48287 | 2.92843 | 3032 ft | 236 kts | 47° |
| 2026-05-03 20:32 | 39.49429 | 2.94357 | 3026 ft | 237 kts | 47° |
| 2026-05-03 20:32 | 39.50581 | 2.95875 | 3031 ft | 236 kts | 47° |
| 2026-05-03 20:32 | 39.51726 | 2.97387 | 3025 ft | 235 kts | 47° |
| 2026-05-03 20:33 | 39.52883 | 2.98898 | 3027 ft | 236 kts | 46° |
| 2026-05-03 20:33 | 39.54031 | 3.00412 | 3034 ft | 236 kts | 47° |
| 2026-05-03 20:33 | 39.55176 | 3.01935 | 3019 ft | 235 kts | 47° |
| 2026-05-03 20:33 | 39.56304 | 3.03454 | 3019 ft | 233 kts | 47° |
| 2026-05-03 20:34 | 39.57440 | 3.04989 | 3019 ft | 235 kts | 47° |
| 2026-05-03 20:34 | 39.58565 | 3.06490 | 3023 ft | 235 kts | 47° |
| 2026-05-03 20:34 | 39.59703 | 3.08001 | 3025 ft | 235 kts | 47° |
| 2026-05-03 20:34 | 39.60970 | 3.09349 | 3020 ft | 236 kts | 25° |
| 2026-05-03 20:35 | 39.62577 | 3.09736 | 3024 ft | 237 kts | 352° |
| 2026-05-03 20:35 | 39.64068 | 3.09000 | 3021 ft | 227 kts | 318° |
| 2026-05-03 20:35 | 39.64958 | 3.07446 | 3019 ft | 206 kts | 285° |
| 2026-05-03 20:35 | 39.65362 | 3.05717 | 3027 ft | 201 kts | 282° |
| 2026-05-03 20:36 | 39.65742 | 3.03972 | 3017 ft | 199 kts | 282° |
| 2026-05-03 20:36 | 39.66107 | 3.02258 | 3018 ft | 198 kts | 282° |
| 2026-05-03 20:36 | 39.66468 | 3.00552 | 3019 ft | 195 kts | 282° |
| 2026-05-03 20:36 | 39.66813 | 2.98831 | 3014 ft | 196 kts | 273° |
| 2026-05-03 20:37 | 39.66479 | 2.97193 | 3031 ft | 192 kts | 228° |
| 2026-05-03 20:37 | 39.65530 | 2.95991 | 3019 ft | 190 kts | 220° |
| 2026-05-03 20:37 | 39.64582 | 2.94810 | 3017 ft | 188 kts | 227° |
| 2026-05-03 20:37 | 39.63774 | 2.93470 | 3014 ft | 190 kts | 233° |
| 2026-05-03 20:38 | 39.63058 | 2.92020 | 2838 ft | 191 kts | 237° |
| 2026-05-03 20:38 | 39.62380 | 2.90565 | 2577 ft | 190 kts | 236° |
| 2026-05-03 20:38 | 39.61689 | 2.89110 | 2357 ft | 183 kts | 236° |
| 2026-05-03 20:38 | 39.61056 | 2.87770 | 2093 ft | 169 kts | 235° |
| 2026-05-03 20:39 | 39.60465 | 2.86522 | 1866 ft | 155 kts | 234° |
| 2026-05-03 20:39 | 39.59893 | 2.85327 | 1671 ft | 159 kts | 235° |
| 2026-05-03 20:39 | 39.59335 | 2.84144 | 1440 ft | 146 kts | 236° |
| 2026-05-03 20:39 | 39.58813 | 2.83036 | 1216 ft | 146 kts | 236° |
| 2026-05-03 20:40 | 39.58284 | 2.81909 | 1046 ft | 147 kts | 236° |
| 2026-05-03 20:40 | 39.57752 | 2.80794 | 819 ft | 147 kts | 236° |
| 2026-05-03 20:40 | 39.57204 | 2.79656 | 647 ft | 150 kts | 238° |
| 2026-05-03 20:40 | 39.56651 | 2.78489 | 403 ft | 149 kts | 238° |
| 2026-05-03 20:41 | 39.56108 | 2.77337 | 256 ft | 151 kts | 238° |
| 2026-05-03 20:41 | 39.55556 | 2.76189 | 64 ft | 152 kts | 239° |
| 2026-05-03 20:41 | 39.55036 | 2.75085 | 29 ft | 122 kts | 238° |
| 2026-05-03 20:41 | 39.54699 | 2.74377 | 35 ft | 55 kts | 239° |
| 2026-05-03 20:42 | 39.54591 | 2.74133 | 34 ft | 24 kts | 248° |
| 2026-05-03 20:42 | 39.54553 | 2.73911 | 35 ft | 24 kts | 268° |
| 2026-05-03 20:42 | 39.54552 | 2.73790 | 35 ft | 0 kts | 270° |
| 2026-05-03 20:43 | 39.54552 | 2.73785 | 35 ft | 2 kts | 270° |
| 2026-05-03 20:44 | 39.54552 | 2.73755 | 35 ft | 4 kts | 270° |
| 2026-05-03 20:44 | 39.54552 | 2.73739 | 35 ft | 0 kts | 269° |
| 2026-05-03 20:44 | 39.54552 | 2.73734 | 35 ft | 2 kts | 269° |
| 2026-05-03 20:44 | 39.54552 | 2.73703 | 35 ft | 4 kts | 269° |
| 2026-05-03 20:45 | 39.54551 | 2.73682 | 35 ft | 2 kts | 269° |
| 2026-05-03 20:45 | 39.54550 | 2.73646 | 35 ft | 6 kts | 266° |
| 2026-05-03 20:45 | 39.54531 | 2.73580 | 34 ft | 10 kts | 239° |
| 2026-05-03 20:45 | 39.54490 | 2.73493 | 35 ft | 13 kts | 239° |
| 2026-05-03 20:46 | 39.54452 | 2.73413 | 34 ft | 10 kts | 238° |
| 2026-05-03 20:46 | 39.54414 | 2.73331 | 35 ft | 6 kts | 239° |
| 2026-05-03 20:46 | 39.54387 | 2.73270 | 36 ft | 9 kts | 240° |
| 2026-05-03 20:46 | 39.54394 | 2.73218 | 11 ft | 3 kts | 324° |
| 2026-05-03 20:47 | 39.54424 | 2.73195 | 36 ft | 7 kts | 330° |
| 2026-05-03 20:47 | 39.54467 | 2.73176 | 34 ft | 6 kts | 343° |
| 2026-05-03 20:47 | 39.54487 | 2.73168 | 36 ft | 0 kts | 344° |